Time;durP1;ratioP1;P1;durP2;ratioP2;P2;SDS_P1;SDS_P2;PMS_P1;PMS_P2;Temp;Humidity;BMP_temperature;BMP_pressure;BME280_temperature;BME280_humidity;BME280_pressure;Samples;Min_cycle;Max_cycle;Signal;HPM_P1;HPM_P2
2023/07/13 00:01:06;;;;;;;9.43;8.73;;;;;;;22.32;61.90;93151.94;5050492;28;20259;-73
2023/07/13 00:03:34;;;;;;;8.88;8.27;;;;;;;22.40;63.24;93153.72;5050801;28;20205;-73
2023/07/13 00:06:01;;;;;;;9.98;9.07;;;;;;;22.26;62.50;93153.31;5050057;28;20288;-74
2023/07/13 00:08:32;;;;;;;11.23;9.80;;;;;;;22.29;61.53;93147.31;5032794;28;20633;-72
2023/07/13 00:10:58;;;;;;;9.60;8.70;;;;;;;22.33;61.06;93139.44;5032802;28;20242;-73
2023/07/13 00:13:23;;;;;;;10.52;9.82;;;;;;;22.19;61.83;93131.84;5049809;28;20221;-73
2023/07/13 00:15:49;;;;;;;9.50;8.70;;;;;;;22.19;63.30;93129.94;5049588;28;20228;-74
2023/07/13 00:18:14;;;;;;;9.20;8.60;;;;;;;22.26;62.95;93139.25;5050163;28;20188;-73
2023/07/13 00:20:41;;;;;;;10.23;9.20;;;;;;;22.20;63.32;93122.72;5056345;28;20223;-74
2023/07/13 00:23:07;;;;;;;9.82;8.93;;;;;;;22.26;63.38;93120.63;5049982;28;20191;-73
2023/07/13 00:25:32;;;;;;;10.60;9.80;;;;;;;22.06;65.13;93132.97;5049498;28;20244;-71
2023/07/13 00:27:57;;;;;;;10.07;9.27;;;;;;;22.07;64.99;93122.00;5050010;28;20199;-71
2023/07/13 00:30:23;;;;;;;10.05;9.45;;;;;;;22.00;65.31;93123.69;5048842;28;20220;-71
2023/07/13 00:32:49;;;;;;;11.13;10.10;;;;;;;22.04;65.90;93124.53;5049027;28;20207;-71
2023/07/13 00:35:15;;;;;;;10.90;10.07;;;;;;;22.07;64.36;93124.66;5048135;28;20224;-72
2023/07/13 00:37:40;;;;;;;10.25;9.20;;;;;;;21.92;65.06;93130.66;5049812;28;20197;-71
2023/07/13 00:40:07;;;;;;;9.20;8.60;;;;;;;21.90;66.42;93130.22;5049305;28;20242;-71
2023/07/13 00:42:33;;;;;;;10.35;9.45;;;;;;;21.71;67.41;93126.56;5045434;28;20217;-72
2023/07/13 00:45:11;;;;;;;9.88;9.00;;;;;;;21.66;66.99;93129.47;5044606;28;20262;-71
2023/07/13 00:47:36;;;;;;;10.20;9.32;;;;;;;21.77;66.41;93127.94;5038067;28;20180;-71
2023/07/13 00:50:03;;;;;;;11.05;10.15;;;;;;;21.71;67.68;93122.00;5048612;28;20849;-73
2023/07/13 00:52:29;;;;;;;10.00;9.38;;;;;;;21.71;67.02;93131.91;5031854;28;20192;-73
2023/07/13 00:54:55;;;;;;;9.75;9.07;;;;;;;21.72;66.37;93125.47;5049285;28;20232;-73
2023/07/13 00:57:21;;;;;;;10.27;9.40;;;;;;;21.69;66.92;93128.78;5048410;28;20192;-73
2023/07/13 00:59:52;;;;;;;10.43;9.65;;;;;;;21.57;67.65;93123.50;5048960;28;20251;-73
2023/07/13 01:02:18;;;;;;;9.73;8.98;;;;;;;21.51;67.59;93116.84;5049513;28;20199;-73
2023/07/13 01:04:43;;;;;;;10.65;9.75;;;;;;;21.58;68.22;93114.41;5048520;28;20237;-73
2023/07/13 01:07:10;;;;;;;10.05;9.25;;;;;;;21.61;67.26;93111.06;5049343;28;20197;-73
2023/07/13 01:09:35;;;;;;;10.50;9.55;;;;;;;21.60;67.34;93114.84;5052994;28;20224;-73
2023/07/13 01:12:01;;;;;;;10.88;9.95;;;;;;;21.30;69.42;93111.66;5053997;28;20211;-73
2023/07/13 01:14:27;;;;;;;10.50;9.80;;;;;;;21.45;69.35;93100.34;5052779;28;20206;-72
2023/07/13 01:16:53;;;;;;;10.15;9.45;;;;;;;21.51;69.22;93109.63;5053279;28;20192;-73
2023/07/13 01:19:35;;;;;;;10.95;10.07;;;;;;;21.43;69.29;93115.84;5052143;28;20219;-74
2023/07/13 01:22:01;;;;;;;9.95;9.23;;;;;;;21.34;69.09;93117.84;5052496;28;20201;-85
2023/07/13 01:24:26;;;;;;;10.65;9.77;;;;;;;21.25;69.77;93105.75;5052942;28;20181;-86
2023/07/13 01:26:52;;;;;;;11.65;10.60;;;;;;;21.22;69.94;93104.56;5053102;28;20201;-86
2023/07/13 01:29:17;;;;;;;11.23;10.43;;;;;;;21.33;67.72;93096.91;5052843;28;20192;-85
2023/07/13 01:31:44;;;;;;;11.40;10.48;;;;;;;21.54;66.99;93094.91;5053614;28;20190;-85
2023/07/13 01:34:10;;;;;;;11.23;10.27;;;;;;;21.52;68.22;93102.44;5059079;28;20195;-85
2023/07/13 01:36:35;;;;;;;12.05;11.07;;;;;;;21.53;67.53;93109.31;5057125;28;20223;-86
2023/07/13 01:39:02;;;;;;;12.20;11.15;;;;;;;21.32;69.88;93084.75;5068431;28;20228;-86
2023/07/13 01:41:27;;;;;;;11.88;10.82;;;;;;;21.49;69.74;93108.44;5052854;28;20228;-86
2023/07/13 01:43:52;;;;;;;12.10;11.25;;;;;;;21.53;68.76;93104.00;5052921;28;20210;-86
2023/07/13 01:46:18;;;;;;;11.02;10.13;;;;;;;21.49;68.40;93098.59;5059216;28;20224;-86
2023/07/13 01:48:43;;;;;;;10.82;9.90;;;;;;;21.21;71.11;93094.25;5057867;28;20177;-84
2023/07/13 01:51:09;;;;;;;10.90;9.90;;;;;;;20.96;71.10;93050.22;5047687;28;20252;-86
2023/07/13 01:53:34;;;;;;;12.38;11.43;;;;;;;21.35;69.91;93103.47;5057667;28;20185;-86
2023/07/13 01:55:59;;;;;;;11.40;10.50;;;;;;;21.49;70.75;93106.56;5050567;28;20228;-85
2023/07/13 01:58:25;;;;;;;11.75;10.82;;;;;;;21.35;70.30;93098.16;5059069;28;20183;-85
2023/07/13 02:00:51;;;;;;;10.98;10.13;;;;;;;20.60;71.48;92984.56;5065613;28;20294;-86
2023/07/13 02:03:17;;;;;;;12.40;11.45;;;;;;;21.41;71.57;93104.78;5069575;28;20197;-85
2023/07/13 02:05:44;;;;;;;12.50;10.65;;;;;;;21.23;71.30;93106.09;5068912;28;20214;-86
2023/07/13 02:08:09;;;;;;;13.00;12.00;;;;;;;20.94;71.05;93113.44;5057308;28;20180;-86
2023/07/13 02:10:35;;;;;;;12.00;10.95;;;;;;;21.16;71.90;93110.41;5056798;28;20236;-85
2023/07/13 02:13:00;;;;;;;11.05;9.98;;;;;;;20.89;73.14;93111.78;5057458;28;20224;-85
2023/07/13 02:15:25;;;;;;;12.65;10.35;;;;;;;20.76;72.76;93109.44;5057441;28;20238;-82
2023/07/13 02:17:51;;;;;;;11.13;10.20;;;;;;;20.95;71.91;93099.09;5070952;28;20191;-86
2023/07/13 02:20:16;;;;;;;12.07;11.18;;;;;;;20.89;72.93;93097.75;5062412;28;20237;-85
2023/07/13 02:22:41;;;;;;;11.18;10.35;;;;;;;20.88;72.33;93107.59;5050578;28;20210;-85
2023/07/13 02:25:07;;;;;;;11.38;10.50;;;;;;;21.13;72.07;93111.06;5089112;28;20225;-83
2023/07/13 02:27:32;;;;;;;11.82;10.77;;;;;;;21.16;71.85;93118.38;5056967;28;20187;-85
2023/07/13 02:29:58;;;;;;;14.40;10.75;;;;;;;21.06;72.89;93111.59;5059645;28;20297;-87
2023/07/13 02:32:25;;;;;;;10.88;10.07;;;;;;;21.01;72.88;93119.81;5063873;28;20178;-88
2023/07/13 02:34:52;;;;;;;10.73;10.02;;;;;;;21.03;73.35;93124.78;5068725;28;20232;-83
2023/07/13 02:37:17;;;;;;;11.48;10.48;;;;;;;21.07;72.71;93125.66;5069793;28;20189;-85
2023/07/13 02:39:43;;;;;;;10.75;10.05;;;;;;;21.03;73.57;93127.44;5051062;28;20359;-84
2023/07/13 02:42:08;;;;;;;13.15;10.75;;;;;;;21.05;73.77;93122.56;5051254;28;20203;-87
2023/07/13 02:44:33;;;;;;;10.68;9.70;;;;;;;20.90;74.64;93099.28;5059031;28;20228;-76
2023/07/13 02:46:59;;;;;;;11.38;10.45;;;;;;;21.01;74.34;93127.78;5051266;28;20184;-74
2023/07/13 02:49:24;;;;;;;11.88;10.82;;;;;;;21.01;74.91;93119.81;5051166;28;20190;-72
2023/07/13 02:51:51;;;;;;;12.38;11.27;;;;;;;21.00;74.52;93115.59;5051531;28;20184;-74
2023/07/13 02:54:16;;;;;;;14.75;11.15;;;;;;;20.96;74.26;93119.22;5050843;28;20667;-74
2023/07/13 02:56:43;;;;;;;11.88;10.68;;;;;;;20.92;74.06;93123.63;5050784;28;20171;-73
2023/07/13 02:59:09;;;;;;;15.50;10.55;;;;;;;20.87;75.25;93126.50;5051149;28;20215;-73
2023/07/13 03:01:35;;;;;;;12.35;11.15;;;;;;;20.81;75.84;93119.84;5055669;28;20229;-73
2023/07/13 03:04:01;;;;;;;16.27;10.43;;;;;;;20.76;74.67;93106.78;5051727;28;20176;-74
2023/07/13 03:06:30;;;;;;;12.00;10.98;;;;;;;20.91;73.61;93130.03;5051058;28;20287;-73
2023/07/13 03:08:55;;;;;;;12.20;11.23;;;;;;;20.98;74.03;93120.44;5051465;28;20269;-74
2023/07/13 03:11:21;;;;;;;11.45;10.20;;;;;;;21.02;73.30;93126.66;5051147;28;20217;-72
2023/07/13 03:13:46;;;;;;;11.32;10.35;;;;;;;20.85;72.88;93126.81;5051300;28;20256;-73
2023/07/13 03:16:12;;;;;;;10.38;9.68;;;;;;;21.01;74.31;93124.34;5049870;28;20237;-74
2023/07/13 03:18:38;;;;;;;10.77;9.73;;;;;;;21.15;73.87;93130.91;5051092;28;20182;-73
2023/07/13 03:21:04;;;;;;;11.18;10.25;;;;;;;21.33;72.85;93134.09;5062815;28;20229;-74
2023/07/13 03:23:30;;;;;;;11.57;10.57;;;;;;;21.44;71.82;93138.66;5056929;28;20189;-74
2023/07/13 03:26:18;;;;;;;10.63;9.82;;;;;;;21.40;72.59;93129.03;5057571;28;20219;-74
2023/07/13 03:28:44;;;;;;;11.25;10.35;;;;;;;21.49;73.03;93135.00;5045198;28;20192;-74
2023/07/13 03:31:13;;;;;;;11.65;10.75;;;;;;;21.58;71.85;93135.66;5049910;28;20275;-73
2023/07/13 03:33:38;;;;;;;11.88;10.90;;;;;;;21.49;73.20;93124.38;5051081;28;20188;-74
2023/07/13 03:36:06;;;;;;;11.20;10.40;;;;;;;21.37;73.15;93105.78;5050580;28;20222;-72
2023/07/13 03:44:50;;;;;;;11.35;10.55;;;;;;;21.48;75.35;93139.53;5132215;27;20574;-74
2023/07/13 03:47:15;;;;;;;12.18;11.27;;;;;;;21.61;74.76;93135.78;5091681;28;20194;-74
2023/07/13 03:49:41;;;;;;;14.15;12.75;;;;;;;21.33;75.14;93126.13;5078205;28;20241;-74
2023/07/13 03:52:06;;;;;;;12.63;11.52;;;;;;;21.83;73.43;93134.56;5095705;28;20191;-74
2023/07/13 03:54:32;;;;;;;14.23;12.77;;;;;;;22.17;72.51;93128.72;5086078;28;20253;-74
2023/07/13 03:56:58;;;;;;;13.90;11.68;;;;;;;22.28;71.85;93127.16;5089964;28;20196;-74
2023/07/13 03:59:23;;;;;;;13.05;11.73;;;;;;;22.36;73.11;93120.13;5087438;28;20190;-75
2023/07/13 04:01:48;;;;;;;18.98;12.63;;;;;;;22.59;72.26;93134.47;5086908;28;20182;-74
2023/07/13 04:04:15;;;;;;;13.13;12.02;;;;;;;22.73;72.37;93135.66;5092245;28;20590;-75
2023/07/13 04:06:41;;;;;;;12.75;11.45;;;;;;;23.14;71.78;93145.88;5091601;28;20188;-75
2023/07/13 04:09:06;;;;;;;12.32;11.13;;;;;;;23.22;71.54;93128.16;5091603;28;20263;-75
2023/07/13 04:11:32;;;;;;;13.63;12.38;;;;;;;23.29;71.67;93141.66;5096256;28;20259;-74
2023/07/13 04:13:58;;;;;;;12.75;11.60;;;;;;;23.43;71.71;93136.69;5095734;28;20185;-75
2023/07/13 04:16:25;;;;;;;13.18;11.98;;;;;;;23.56;70.69;93136.25;5073348;28;20232;-74
2023/07/13 04:18:54;;;;;;;13.10;12.00;;;;;;;23.51;70.51;93120.53;5088240;28;20226;-74
2023/07/13 04:21:20;;;;;;;18.50;11.80;;;;;;;23.62;71.91;93128.75;5086803;28;20243;-74
2023/07/13 04:23:46;;;;;;;12.85;11.63;;;;;;;23.74;72.01;93132.09;5095678;28;20218;-75
2023/07/13 04:26:11;;;;;;;16.65;12.32;;;;;;;23.70;71.45;93114.47;5093730;28;20228;-74
2023/07/13 04:28:36;;;;;;;15.90;11.77;;;;;;;24.00;70.61;93128.13;5089555;28;20222;-74
2023/07/13 04:31:02;;;;;;;13.18;12.07;;;;;;;24.26;69.57;93141.66;5091692;28;20220;-74
2023/07/13 04:33:27;;;;;;;13.68;11.80;;;;;;;24.37;69.46;93153.31;5086033;28;20269;-75
2023/07/13 04:35:56;;;;;;;12.02;10.93;;;;;;;24.47;69.88;93166.88;5089781;28;20223;-74
2023/07/13 04:38:22;;;;;;;12.55;11.38;;;;;;;24.71;69.29;93153.28;5087933;28;20180;-74
2023/07/13 04:40:48;;;;;;;13.00;11.43;;;;;;;24.57;67.87;93152.19;5088118;28;20225;-74
2023/07/13 04:43:13;;;;;;;13.68;12.40;;;;;;;24.54;67.73;93167.03;5086454;28;20235;-74
2023/07/13 04:45:39;;;;;;;20.05;13.27;;;;;;;24.06;69.77;93172.88;5087581;28;20223;-75
2023/07/13 04:48:05;;;;;;;15.95;12.75;;;;;;;24.58;66.60;93169.75;5091769;28;20192;-74
2023/07/13 04:50:30;;;;;;;15.63;13.38;;;;;;;23.78;69.77;93175.63;5083093;28;20233;-73
2023/07/13 04:52:55;;;;;;;15.40;12.77;;;;;;;23.54;69.75;93165.16;5067006;28;20186;-74
2023/07/13 04:55:21;;;;;;;14.48;12.85;;;;;;;23.30;69.88;93117.34;5075455;28;20229;-74
2023/07/13 04:57:46;;;;;;;14.18;12.70;;;;;;;24.37;68.02;93167.44;5076296;28;20232;-74
2023/07/13 05:00:13;;;;;;;13.98;12.68;;;;;;;25.14;65.22;93178.88;5075413;28;20230;-73
2023/07/13 05:02:39;;;;;;;13.73;12.15;;;;;;;25.63;63.86;93177.13;5074769;28;20211;-73
2023/07/13 05:05:05;;;;;;;12.77;11.68;;;;;;;25.66;64.61;93172.94;5071106;28;20224;-76
2023/07/13 05:07:32;;;;;;;15.95;13.60;;;;;;;25.29;66.66;93183.38;5075131;28;20211;-79
2023/07/13 05:09:59;;;;;;;15.90;14.43;;;;;;;25.45;63.07;93186.72;5077317;28;20243;-73
2023/07/13 05:12:24;;;;;;;16.13;14.32;;;;;;;25.20;66.07;93188.16;5068963;28;20772;-74
2023/07/13 05:14:50;;;;;;;18.70;14.02;;;;;;;24.43;68.13;93178.59;5068651;28;20284;-71
2023/07/13 05:17:15;;;;;;;21.85;13.70;;;;;;;24.96;68.24;93191.16;5070646;28;21023;-71
2023/07/13 05:19:40;;;;;;;20.40;14.38;;;;;;;25.23;65.66;93200.84;5074933;28;20232;-70
2023/07/13 05:22:06;;;;;;;20.50;14.88;;;;;;;24.86;67.22;93199.72;5069509;28;20185;-71
2023/07/13 05:24:31;;;;;;;16.83;13.98;;;;;;;24.85;67.53;93193.63;5069371;28;20204;-70
2023/07/13 05:26:56;;;;;;;18.88;15.50;;;;;;;24.82;67.59;93209.59;5070437;28;20272;-69
2023/07/13 05:29:22;;;;;;;16.38;14.77;;;;;;;25.37;64.92;93201.09;5068693;28;20189;-70
2023/07/13 05:31:48;;;;;;;19.60;14.68;;;;;;;25.87;61.87;93208.09;5067153;28;20185;-69
2023/07/13 05:34:14;;;;;;;23.95;17.02;;;;;;;26.11;62.90;93208.50;5069562;28;20200;-69
2023/07/13 05:36:40;;;;;;;18.25;15.15;;;;;;;26.61;60.32;93209.97;5070329;28;20215;-69
2023/07/13 05:39:05;;;;;;;16.63;14.80;;;;;;;26.58;59.81;93211.44;5070469;28;20204;-68
2023/07/13 05:41:31;;;;;;;18.33;15.95;;;;;;;26.72;60.66;93203.63;5068523;28;20225;-68
2023/07/13 05:43:56;;;;;;;27.70;15.20;;;;;;;28.16;56.12;93218.56;5070708;28;20243;-69
2023/07/13 05:46:22;;;;;;;22.17;15.18;;;;;;;28.98;52.43;93217.91;5068885;28;20209;-68
2023/07/13 05:48:47;;;;;;;20.23;14.23;;;;;;;30.19;48.93;93206.25;5070137;28;20213;-68
2023/07/13 05:51:13;;;;;;;15.98;12.77;;;;;;;32.27;44.19;93226.66;5052183;28;20309;-69
2023/07/13 05:53:39;;;;;;;19.58;11.90;;;;;;;34.97;38.32;93241.41;5070453;28;20183;-69
2023/07/13 05:56:04;;;;;;;17.60;12.38;;;;;;;36.01;33.60;93231.53;5069373;28;20233;-68
2023/07/13 05:58:30;;;;;;;15.23;11.88;;;;;;;36.00;34.73;93242.81;5070002;28;20208;-69
2023/07/13 06:01:09;;;;;;;14.88;11.43;;;;;;;37.82;31.54;93251.78;5069807;28;20236;-69
2023/07/13 06:03:34;;;;;;;15.05;11.73;;;;;;;38.65;30.23;93257.06;5069975;28;20228;-70
2023/07/13 06:06:00;;;;;;;14.95;11.68;;;;;;;39.45;29.11;93254.31;5065148;28;20887;-68
2023/07/13 06:08:26;;;;;;;16.23;11.88;;;;;;;40.89;25.85;93248.75;5065203;28;20263;-69
2023/07/13 06:10:51;;;;;;;12.02;10.80;;;;;;;41.38;25.74;93235.72;5062325;28;20217;-68
2023/07/13 06:13:18;;;;;;;16.50;11.20;;;;;;;42.07;25.17;93243.25;5076039;28;20184;-69
2023/07/13 06:15:48;;;;;;;11.73;10.45;;;;;;;41.83;23.24;93247.84;5071054;28;20233;-74
2023/07/13 06:18:13;;;;;;;10.95;8.95;;;;;;;40.38;24.77;93242.22;5069179;28;20197;-72
2023/07/13 06:20:39;;;;;;;15.48;11.90;;;;;;;40.24;25.77;93258.44;5068382;28;20233;-71
2023/07/13 06:23:04;;;;;;;12.27;10.88;;;;;;;39.12;27.29;93257.81;5066264;28;20230;-72
2023/07/13 06:25:29;;;;;;;13.32;11.48;;;;;;;38.81;27.93;93265.84;5069134;28;20221;-72
2023/07/13 06:27:55;;;;;;;12.77;11.38;;;;;;;39.21;27.32;93263.38;5075231;28;20197;-72
2023/07/13 06:30:20;;;;;;;14.18;11.00;;;;;;;41.20;24.86;93263.13;5068748;28;20217;-72
2023/07/13 06:32:45;;;;;;;12.02;10.48;;;;;;;40.15;25.52;93264.63;5069032;28;20265;-71
2023/07/13 06:35:13;;;;;;;21.25;11.50;;;;;;;35.68;31.17;93240.03;5067413;28;20232;-72
2023/07/13 06:37:38;;;;;;;32.35;11.75;;;;;;;40.81;25.26;93253.03;5071227;28;20194;-73
2023/07/13 06:40:04;;;;;;;14.60;11.45;;;;;;;41.12;24.54;93250.97;5068510;28;20217;-74
2023/07/13 06:42:30;;;;;;;23.92;11.63;;;;;;;42.18;23.12;93260.00;5070375;28;20182;-72
2023/07/13 06:44:55;;;;;;;21.17;11.15;;;;;;;40.47;25.21;93255.94;5072272;28;20228;-73
2023/07/13 06:47:21;;;;;;;13.20;11.43;;;;;;;39.93;25.72;93255.69;5068541;28;20240;-72
2023/07/13 06:49:46;;;;;;;22.23;11.07;;;;;;;37.48;29.32;93246.13;5055345;28;20230;-71
2023/07/13 06:52:11;;;;;;;18.23;11.55;;;;;;;37.25;28.92;93224.56;5048407;28;20193;-72
2023/07/13 06:54:37;;;;;;;16.80;11.60;;;;;;;34.26;33.01;93226.69;5047911;28;20236;-72
2023/07/13 06:57:02;;;;;;;19.10;12.23;;;;;;;31.77;38.82;93211.94;5049080;28;20217;-72
2023/07/13 06:59:27;;;;;;;15.93;12.05;;;;;;;30.62;43.32;93202.38;5048476;28;20201;-73
2023/07/13 07:01:53;;;;;;;22.50;12.60;;;;;;;30.98;42.09;93204.63;5048987;28;20229;-72
2023/07/13 07:04:18;;;;;;;15.00;13.38;;;;;;;30.50;43.94;93216.28;5046643;28;20341;-72
2023/07/13 07:06:43;;;;;;;14.48;12.93;;;;;;;29.55;48.24;93211.59;5048807;28;20217;-73
2023/07/13 07:09:09;;;;;;;15.15;12.88;;;;;;;30.26;46.28;93222.47;5048199;28;20220;-73
2023/07/13 07:11:34;;;;;;;15.82;12.52;;;;;;;30.19;46.84;93220.53;5042508;28;20226;-74
2023/07/13 07:13:59;;;;;;;22.08;12.90;;;;;;;29.81;48.32;93217.81;5040419;28;20212;-74
2023/07/13 07:16:25;;;;;;;15.68;12.77;;;;;;;29.47;50.28;93220.00;5047920;28;20237;-73
2023/07/13 07:18:51;;;;;;;20.25;12.82;;;;;;;28.95;51.69;93207.16;5047935;28;20196;-74
2023/07/13 07:21:16;;;;;;;14.20;12.80;;;;;;;29.61;48.27;93214.66;5047486;28;20232;-73
2023/07/13 07:23:42;;;;;;;16.08;11.88;;;;;;;29.64;49.63;93220.09;5048031;28;20216;-74
2023/07/13 07:26:09;;;;;;;14.82;12.73;;;;;;;29.26;51.19;93218.03;5044581;28;20240;-74
2023/07/13 07:28:35;;;;;;;14.82;13.35;;;;;;;29.89;48.32;93219.34;5045560;28;20205;-74
2023/07/13 07:31:01;;;;;;;15.10;13.45;;;;;;;29.41;49.92;93219.63;5048255;28;20233;-74
2023/07/13 07:33:26;;;;;;;14.70;13.18;;;;;;;29.52;49.10;93212.34;5047042;28;20229;-73
2023/07/13 07:35:52;;;;;;;14.05;12.63;;;;;;;29.48;50.95;93206.19;5045390;28;20220;-72
2023/07/13 07:38:17;;;;;;;15.20;13.00;;;;;;;29.46;50.76;93192.34;5047724;28;20189;-74
2023/07/13 07:40:43;;;;;;;15.05;12.65;;;;;;;29.32;50.88;93205.00;5048163;28;20228;-73
2023/07/13 07:43:10;;;;;;;14.63;12.63;;;;;;;29.85;48.60;93207.81;5047587;28;20232;-73
2023/07/13 07:45:37;;;;;;;14.50;13.00;;;;;;;29.73;47.94;93204.34;5048030;28;20226;-72
2023/07/13 07:48:03;;;;;;;14.35;12.77;;;;;;;29.66;49.44;93195.47;5040157;28;20205;-72
2023/07/13 07:50:29;;;;;;;14.73;13.20;;;;;;;29.46;51.38;93192.34;5047894;28;20317;-71
2023/07/13 07:52:55;;;;;;;14.02;12.60;;;;;;;29.78;48.22;93197.78;5047416;28;20193;-73
2023/07/13 07:55:22;;;;;;;14.32;12.98;;;;;;;29.51;48.47;93193.91;5048817;28;20300;-73
2023/07/13 07:57:47;;;;;;;14.82;13.40;;;;;;;29.43;48.13;93193.09;5039680;28;20196;-73
2023/07/13 08:00:13;;;;;;;14.07;12.73;;;;;;;29.31;48.35;93195.41;5047800;28;20235;-71
2023/07/13 08:02:41;;;;;;;14.27;12.75;;;;;;;29.12;49.55;93196.47;5042838;28;20211;-72
2023/07/13 08:05:07;;;;;;;13.23;12.05;;;;;;;29.45;49.38;93190.78;5046090;28;20229;-73
2023/07/13 08:07:32;;;;;;;13.60;12.15;;;;;;;29.51;48.80;93180.44;5040867;28;20195;-73
2023/07/13 08:09:58;;;;;;;13.82;12.57;;;;;;;29.35;48.36;93178.09;5047424;28;20230;-72
2023/07/13 08:12:23;;;;;;;14.65;12.85;;;;;;;29.39;47.22;93175.41;5046799;28;20197;-72
2023/07/13 08:14:58;;;;;;;15.10;13.40;;;;;;;29.41;49.95;93170.41;5047685;28;20266;-74
2023/07/13 08:17:24;;;;;;;16.52;13.10;;;;;;;29.46;52.65;93159.28;5048437;28;20197;-72
2023/07/13 08:19:50;;;;;;;13.45;12.20;;;;;;;29.79;49.73;93166.25;5047737;28;20230;-74
2023/07/13 08:22:15;;;;;;;14.23;12.73;;;;;;;29.74;48.13;93162.78;5047416;28;20307;-74
2023/07/13 08:24:42;;;;;;;13.68;12.45;;;;;;;29.84;49.91;93166.63;5046904;28;20222;-74
2023/07/13 08:27:08;;;;;;;14.20;12.90;;;;;;;29.85;48.44;93160.13;5047521;28;20715;-73
2023/07/13 08:29:33;;;;;;;15.52;13.93;;;;;;;29.96;49.81;93160.88;5048132;28;20287;-69
2023/07/13 08:31:59;;;;;;;13.43;12.20;;;;;;;30.07;47.26;93160.88;5047789;28;20207;-68
2023/07/13 08:34:24;;;;;;;14.20;12.70;;;;;;;30.13;47.19;93164.72;5052230;28;20462;-68
2023/07/13 08:36:49;;;;;;;13.73;12.45;;;;;;;30.33;47.78;93166.66;5051162;28;20205;-70
2023/07/13 08:39:15;;;;;;;16.27;13.13;;;;;;;30.48;47.16;93159.28;5047360;28;20193;-70
2023/07/13 08:41:40;;;;;;;15.60;11.85;;;;;;;30.34;49.57;93167.38;5051591;28;20272;-71
2023/07/13 08:44:19;;;;;;;15.98;12.45;;;;;;;30.18;47.17;93161.63;5052127;28;20228;-72
2023/07/13 08:46:47;;;;;;;17.17;13.13;;;;;;;29.93;48.92;93160.88;5073919;28;20274;-70
2023/07/13 08:49:22;;;;;;;16.23;13.43;;;;;;;30.00;47.16;93156.25;5072484;28;20189;-72
2023/07/13 08:51:53;;;;;;;14.30;12.60;;;;;;;30.07;50.45;93150.88;5072508;28;20219;-70
2023/07/13 08:54:37;;;;;;;15.13;13.45;;;;;;;30.36;49.18;93155.09;5071754;28;20197;-71
2023/07/13 08:57:12;;;;;;;13.60;12.20;;;;;;;30.20;47.31;93159.28;5077492;28;20277;-71
2023/07/13 08:59:38;;;;;;;13.10;11.73;;;;;;;30.44;47.09;93162.00;5071968;28;20487;-71
2023/07/13 09:02:37;;;;;;;13.27;11.63;;;;;;;30.12;50.28;93165.88;5082231;28;20191;-71
2023/07/13 09:05:05;;;;;;;15.70;12.07;;;;;;;30.20;48.81;93178.16;5078456;28;20225;-71
2023/07/13 09:08:09;;;;;;;13.27;11.25;;;;;;;30.01;47.88;93181.28;5067492;28;20189;-75
2023/07/13 09:10:44;;;;;;;13.18;11.95;;;;;;;30.23;49.43;93180.13;5081888;28;20209;-72
2023/07/13 09:13:27;;;;;;;14.68;12.65;;;;;;;30.35;46.30;93198.59;5075307;28;20185;-73
2023/07/13 09:15:53;;;;;;;13.02;11.93;;;;;;;30.40;47.13;93211.69;5073292;28;20235;-82
2023/07/13 09:18:27;;;;;;;12.60;11.57;;;;;;;30.34;45.76;93207.81;5078918;28;20208;-73
2023/07/13 09:20:57;;;;;;;15.80;12.77;;;;;;;30.44;45.75;93205.13;5077391;28;20266;-73
2023/07/13 09:23:24;;;;;;;13.70;12.43;;;;;;;30.23;46.97;93205.13;5077019;28;20205;-71
2023/07/13 09:25:56;;;;;;;18.55;12.70;;;;;;;29.91;43.59;93201.66;5072037;28;20225;-72
2023/07/13 09:28:29;;;;;;;14.82;11.95;;;;;;;30.64;43.82;93206.25;5081363;28;20172;-71
2023/07/13 09:31:17;;;;;;;15.07;12.80;;;;;;;30.95;39.82;93193.84;5077838;28;20224;-71
2023/07/13 09:33:42;;;;;;;13.90;12.48;;;;;;;31.05;40.51;93193.03;5071556;28;20196;-71
2023/07/13 09:36:36;;;;;;;15.57;13.35;;;;;;;30.83;39.74;93202.38;5076103;28;20221;-72
2023/07/13 09:39:08;;;;;;;18.52;12.27;;;;;;;30.81;40.76;93196.59;5075652;28;20197;-73
2023/07/13 09:41:45;;;;;;;12.68;11.45;;;;;;;30.69;41.48;93200.47;5073466;28;20225;-71
2023/07/13 09:44:15;;;;;;;16.38;12.88;;;;;;;30.98;42.92;93184.97;5078424;28;20220;-72
2023/07/13 09:46:46;;;;;;;13.15;11.85;;;;;;;30.44;41.99;93188.97;5070803;28;20244;-72
2023/07/13 09:49:12;;;;;;;14.50;12.57;;;;;;;30.68;44.51;93180.03;5075592;28;20181;-72
2023/07/13 09:51:40;;;;;;;13.45;11.38;;;;;;;30.58;41.39;93163.88;5070926;28;20229;-72
2023/07/13 09:54:16;;;;;;;13.13;11.80;;;;;;;30.88;42.97;93172.31;5080862;28;20193;-73
2023/07/13 09:56:42;;;;;;;14.27;12.55;;;;;;;31.05;42.23;93174.91;5077229;28;20217;-70
2023/07/13 09:59:19;;;;;;;13.70;12.35;;;;;;;31.26;41.10;93168.66;5073172;28;20193;-71
2023/07/13 10:01:45;;;;;;;15.23;12.63;;;;;;;31.48;41.64;93167.41;5077019;28;20216;-72
2023/07/13 10:04:16;;;;;;;13.95;12.57;;;;;;;31.36;38.90;93164.38;5077976;28;20269;-72
2023/07/13 10:06:42;;;;;;;13.80;12.25;;;;;;;31.40;39.55;93160.50;5073301;28;20945;-73
2023/07/13 10:09:08;;;;;;;14.45;13.05;;;;;;;31.24;43.49;93157.47;5054651;28;20204;-73
2023/07/13 10:11:36;;;;;;;13.40;11.90;;;;;;;31.01;42.66;93151.81;5062226;28;20233;-72
2023/07/13 10:14:11;;;;;;;14.77;11.88;;;;;;;31.36;40.86;93142.78;5065698;28;20199;-73
2023/07/13 10:16:36;;;;;;;13.45;12.05;;;;;;;31.77;41.84;93147.13;5068676;28;20241;-72
2023/07/13 10:19:10;;;;;;;14.38;12.88;;;;;;;31.80;41.42;93138.22;5069041;28;20205;-72
2023/07/13 10:21:41;;;;;;;13.98;12.70;;;;;;;31.90;42.54;93150.13;5068446;28;20245;-72
2023/07/13 10:24:22;;;;;;;13.55;12.23;;;;;;;32.08;39.34;93145.38;5069302;28;20289;-72
2023/07/13 10:26:57;;;;;;;13.75;12.40;;;;;;;32.01;39.37;93140.78;5068744;28;20209;-70
2023/07/13 10:29:26;;;;;;;14.48;13.07;;;;;;;32.12;41.41;93151.50;5068874;28;20667;-73
2023/07/13 10:31:52;;;;;;;14.13;12.38;;;;;;;32.26;39.96;93141.34;5062909;28;21658;-74
2023/07/13 10:34:18;;;;;;;17.70;13.95;;;;;;;32.31;38.96;93146.28;5064883;28;20197;-73
2023/07/13 10:36:46;;;;;;;13.80;12.48;;;;;;;32.45;38.76;93140.78;5065349;28;20249;-74
2023/07/13 10:39:22;;;;;;;14.02;11.98;;;;;;;32.21;37.67;93127.47;5066330;28;20185;-75
2023/07/13 10:41:53;;;;;;;15.00;12.27;;;;;;;32.30;39.21;93133.16;5071283;28;20262;-74
2023/07/13 10:44:26;;;;;;;15.73;14.10;;;;;;;32.24;41.80;93130.16;5066976;28;20260;-75
2023/07/13 10:46:59;;;;;;;14.27;12.82;;;;;;;32.36;39.49;93129.66;5031625;28;20625;-73
2023/07/13 10:49:27;;;;;;;14.48;12.90;;;;;;;32.67;39.18;93131.25;5035266;28;20190;-74
2023/07/13 10:51:53;;;;;;;13.75;11.48;;;;;;;32.67;36.99;93122.41;5047953;28;20194;-74
2023/07/13 10:54:32;;;;;;;15.05;12.77;;;;;;;32.54;39.44;93119.44;5047987;28;20218;-74
2023/07/13 10:57:12;;;;;;;13.88;12.57;;;;;;;32.54;38.08;93118.69;5048843;28;20200;-74
2023/07/13 10:59:37;;;;;;;17.88;13.18;;;;;;;32.31;40.02;93108.44;5047905;28;20226;-74
2023/07/13 11:02:04;;;;;;;14.45;12.43;;;;;;;32.44;37.63;93108.72;5048625;28;20198;-74
2023/07/13 11:04:49;;;;;;;18.48;12.93;;;;;;;32.56;39.19;93102.81;5048065;28;20214;-74
2023/07/13 11:07:22;;;;;;;13.55;12.15;;;;;;;32.69;37.69;93088.34;5049088;28;20885;-73
2023/07/13 11:09:57;;;;;;;13.63;12.32;;;;;;;32.76;40.49;93094.84;5046345;28;20237;-73
2023/07/13 11:12:22;;;;;;;13.80;12.50;;;;;;;32.83;40.17;93097.47;5043980;28;20195;-74
2023/07/13 11:14:54;;;;;;;17.67;12.57;;;;;;;32.82;38.97;93095.94;5047200;28;20246;-74
2023/07/13 11:17:45;;;;;;;18.05;12.60;;;;;;;32.85;38.28;93093.19;5046382;28;20220;-74
2023/07/13 11:20:13;;;;;;;14.90;12.77;;;;;;;32.66;37.80;93083.75;5047883;28;20293;-74
2023/07/13 11:22:53;;;;;;;18.58;11.30;;;;;;;32.60;36.94;93079.97;5038436;28;20229;-73
2023/07/13 11:25:26;;;;;;;13.07;11.88;;;;;;;32.69;36.96;93076.75;5048337;28;20233;-74
2023/07/13 11:28:12;;;;;;;19.38;12.55;;;;;;;32.97;37.27;93081.09;5047511;28;20190;-74